Time;durP1;ratioP1;P1;durP2;ratioP2;P2;SDS_P1;SDS_P2;PMS_P1;PMS_P2;Temp;Humidity;BMP_temperature;BMP_pressure;BME280_temperature;BME280_humidity;BME280_pressure;Samples;Min_cycle;Max_cycle;Signal;HPM_P1;HPM_P2
2022/10/18 00:01:55;;;;;;;1.67;1.58;;;;;;;;;;5037873;28;20173;-69
2022/10/18 00:04:21;;;;;;;0.30;0.30;;;;;;;;;;5038118;28;20518;-68
2022/10/18 00:06:46;;;;;;;0.77;0.77;;;;;;;;;;5058400;28;20169;-68
2022/10/18 00:09:12;;;;;;;0.30;0.30;;;;;;;;;;5054964;28;20208;-68
2022/10/18 00:11:37;;;;;;;0.30;0.30;;;;;;;;;;5049209;28;20182;-68
2022/10/18 00:14:10;;;;;;;0.30;0.30;;;;;;;;;;5034517;28;20530;-67
2022/10/18 00:16:38;;;;;;;0.30;0.30;;;;;;;;;;5056631;28;20186;-67
2022/10/18 00:19:03;;;;;;;0.30;0.30;;;;;;;;;;5054615;28;20886;-68
2022/10/18 00:21:29;;;;;;;0.30;0.30;;;;;;;;;;5055905;28;21122;-68
2022/10/18 00:23:54;;;;;;;0.30;0.30;;;;;;;;;;5048269;28;20242;-68
2022/10/18 00:26:26;;;;;;;0.30;0.30;;;;;;;;;;5054809;28;20334;-68
2022/10/18 00:28:56;;;;;;;0.30;0.30;;;;;;;;;;5053217;28;20551;-67
2022/10/18 00:31:26;;;;;;;0.30;0.30;;;;;;;;;;5056380;28;20189;-68
2022/10/18 00:33:57;;;;;;;0.30;0.30;;;;;;;;;;5047476;28;20554;-67
2022/10/18 00:36:23;;;;;;;0.30;0.30;;;;;;;;;;5053568;28;20173;-68
2022/10/18 00:38:49;;;;;;;0.30;0.30;;;;;;;;;;5054960;28;20541;-68
2022/10/18 00:41:18;;;;;;;0.30;0.30;;;;;;;;;;5035347;28;20170;-67
2022/10/18 00:43:54;;;;;;;0.30;0.30;;;;;;;;;;5053066;28;20181;-68
2022/10/18 00:46:20;;;;;;;0.30;0.30;;;;;;;;;;5054458;28;20181;-67
2022/10/18 00:48:46;;;;;;;0.30;0.30;;;;;;;;;;5045856;28;20588;-68
2022/10/18 00:51:12;;;;;;;0.30;0.30;;;;;;;;;;5051376;28;20178;-67
2022/10/18 00:53:38;;;;;;;0.30;0.30;;;;;;;;;;5054152;28;20168;-67
2022/10/18 00:56:04;;;;;;;0.30;0.30;;;;;;;;;;5052520;28;20193;-67
2022/10/18 00:58:29;;;;;;;0.30;0.30;;;;;;;;;;5053794;28;20205;-67
2022/10/18 01:00:55;;;;;;;0.30;0.30;;;;;;;;;;5049686;28;20175;-68
2022/10/18 01:03:20;;;;;;;0.30;0.30;;;;;;;;;;5037375;28;20182;-67
2022/10/18 01:05:47;;;;;;;0.30;0.30;;;;;;;;;;5036913;28;20268;-67
2022/10/18 01:08:45;;;;;;;0.30;0.30;;;;;;;;;;5051555;28;20217;-67
2022/10/18 01:11:25;;;;;;;0.30;0.30;;;;;;;;;;5007708;28;20745;-67
2022/10/18 01:14:19;;;;;;;0.28;0.28;;;;;;;;;;5040087;28;20193;-68
2022/10/18 01:17:16;;;;;;;0.30;0.30;;;;;;;;;;5036691;28;20193;-67
2022/10/18 01:20:07;;;;;;;0.30;0.30;;;;;;;;;;5040139;28;20256;-69
2022/10/18 01:22:36;;;;;;;0.30;0.30;;;;;;;;;;5060698;28;20443;-68
2022/10/18 01:25:17;;;;;;;0.30;0.30;;;;;;;;;;5035290;28;20303;-67
2022/10/18 01:27:54;;;;;;;0.30;0.30;;;;;;;;;;5052829;28;20300;-67
2022/10/18 01:30:57;;;;;;;0.30;0.30;;;;;;;;;;5034147;28;20281;-66
2022/10/18 01:33:22;;;;;;;0.30;0.30;;;;;;;;;;5047555;28;20664;-68
2022/10/18 01:36:12;;;;;;;0.30;0.30;;;;;;;;;;5059571;28;20177;-68
2022/10/18 01:38:39;;;;;;;0.30;0.30;;;;;;;;;;5035816;28;20232;-68
2022/10/18 01:41:07;;;;;;;0.30;0.30;;;;;;;;;;5041720;28;20192;-68
2022/10/18 01:43:35;;;;;;;0.30;0.30;;;;;;;;;;5055088;28;20185;-68
2022/10/18 01:46:03;;;;;;;0.30;0.30;;;;;;;;;;5051206;28;20319;-68
2022/10/18 01:48:29;;;;;;;0.30;0.30;;;;;;;;;;5039012;28;20229;-68
2022/10/18 01:50:55;;;;;;;0.30;0.30;;;;;;;;;;5039418;28;20195;-68
2022/10/18 01:53:27;;;;;;;0.30;0.30;;;;;;;;;;5048652;28;20201;-69
2022/10/18 01:56:20;;;;;;;0.30;0.30;;;;;;;;;;5039001;28;20268;-69
2022/10/18 01:58:58;;;;;;;0.30;0.30;;;;;;;;;;5051304;28;20482;-68
2022/10/18 02:01:40;;;;;;;0.30;0.30;;;;;;;;;;5047981;28;20222;-68
2022/10/18 02:04:22;;;;;;;0.30;0.30;;;;;;;;;;5052453;28;20510;-68
2022/10/18 02:06:54;;;;;;;0.30;0.30;;;;;;;;;;5047042;28;20174;-68
2022/10/18 02:09:29;;;;;;;0.30;0.30;;;;;;;;;;5060359;28;20194;-68
2022/10/18 02:11:56;;;;;;;0.30;0.30;;;;;;;;;;5058823;28;20180;-68
2022/10/18 02:14:23;;;;;;;0.30;0.30;;;;;;;;;;5047035;28;20181;-69
2022/10/18 02:16:52;;;;;;;0.30;0.30;;;;;;;;;;5046293;28;20674;-69
2022/10/18 02:19:36;;;;;;;0.30;0.30;;;;;;;;;;5056147;28;20178;-69
2022/10/18 02:22:02;;;;;;;0.30;0.30;;;;;;;;;;5059238;28;21059;-68
2022/10/18 02:24:35;;;;;;;0.30;0.30;;;;;;;;;;5061710;28;20579;-68
2022/10/18 02:27:01;;;;;;;0.30;0.30;;;;;;;;;;5035538;28;20683;-68
2022/10/18 02:29:27;;;;;;;0.30;0.30;;;;;;;;;;5040986;28;20209;-68
2022/10/18 02:32:33;;;;;;;0.30;0.30;;;;;;;;;;5039072;28;20677;-68
2022/10/18 02:35:09;;;;;;;0.30;0.30;;;;;;;;;;5054924;28;20699;-68
2022/10/18 02:37:37;;;;;;;0.30;0.30;;;;;;;;;;5053620;28;20194;-68
2022/10/18 02:40:05;;;;;;;0.30;0.30;;;;;;;;;;5047482;28;20190;-68
2022/10/18 02:42:53;;;;;;;0.30;0.30;;;;;;;;;;5059417;28;20196;-68
2022/10/18 02:45:19;;;;;;;0.30;0.30;;;;;;;;;;5059291;28;20259;-69
2022/10/18 02:47:45;;;;;;;0.30;0.30;;;;;;;;;;5057684;28;20201;-68
2022/10/18 02:50:10;;;;;;;0.30;0.30;;;;;;;;;;5054689;28;20643;-68
2022/10/18 02:52:36;;;;;;;0.38;0.38;;;;;;;;;;5038451;28;20443;-68
2022/10/18 02:55:01;;;;;;;0.35;0.35;;;;;;;;;;5054383;28;20213;-69
2022/10/18 02:57:27;;;;;;;0.30;0.30;;;;;;;;;;5060049;28;20197;-69
2022/10/18 02:59:52;;;;;;;0.30;0.30;;;;;;;;;;5056420;28;20182;-70
2022/10/18 03:02:17;;;;;;;0.30;0.30;;;;;;;;;;5057192;28;20658;-69
2022/10/18 03:04:43;;;;;;;0.30;0.30;;;;;;;;;;5058884;28;20264;-68
2022/10/18 03:07:08;;;;;;;0.30;0.30;;;;;;;;;;5053433;28;20194;-68
2022/10/18 03:09:34;;;;;;;0.30;0.30;;;;;;;;;;5049324;28;20717;-68
2022/10/18 03:11:59;;;;;;;0.30;0.30;;;;;;;;;;5036091;28;20189;-68
2022/10/18 03:14:24;;;;;;;0.30;0.30;;;;;;;;;;5053668;28;20231;-68
2022/10/18 03:16:50;;;;;;;0.30;0.30;;;;;;;;;;5059375;28;20191;-69
2022/10/18 03:19:15;;;;;;;0.43;0.43;;;;;;;;;;5062061;28;20704;-69
2022/10/18 03:21:41;;;;;;;0.30;0.30;;;;;;;;;;5054689;28;20196;-68
2022/10/18 03:24:06;;;;;;;0.30;0.30;;;;;;;;;;5053786;28;20170;-68
2022/10/18 03:26:31;;;;;;;0.30;0.30;;;;;;;;;;5053436;28;20195;-69
2022/10/18 03:28:57;;;;;;;0.30;0.30;;;;;;;;;;5049373;28;20270;-68
2022/10/18 03:31:22;;;;;;;0.30;0.30;;;;;;;;;;5049374;28;20272;-68
2022/10/18 03:33:47;;;;;;;0.30;0.30;;;;;;;;;;5045253;28;20192;-68
2022/10/18 03:36:13;;;;;;;0.30;0.30;;;;;;;;;;5052195;28;20563;-68
2022/10/18 03:38:38;;;;;;;0.30;0.30;;;;;;;;;;5038555;28;20205;-68
2022/10/18 03:41:04;;;;;;;0.30;0.30;;;;;;;;;;5058533;28;20637;-68
2022/10/18 03:43:30;;;;;;;0.45;0.45;;;;;;;;;;5033199;28;20182;-68
2022/10/18 03:45:55;;;;;;;0.30;0.30;;;;;;;;;;5056894;28;20185;-68
2022/10/18 03:48:20;;;;;;;0.30;0.30;;;;;;;;;;5047513;28;20217;-67
2022/10/18 03:50:46;;;;;;;0.30;0.30;;;;;;;;;;5057832;28;20666;-68
2022/10/18 03:53:11;;;;;;;0.30;0.30;;;;;;;;;;5055297;28;20198;-68
2022/10/18 03:55:37;;;;;;;0.30;0.30;;;;;;;;;;5049926;28;20178;-68
2022/10/18 03:58:02;;;;;;;0.30;0.30;;;;;;;;;;5050650;28;20433;-68
2022/10/18 04:00:28;;;;;;;0.30;0.30;;;;;;;;;;5059755;28;20280;-68
2022/10/18 04:02:53;;;;;;;0.30;0.30;;;;;;;;;;5051899;28;20205;-67
2022/10/18 04:05:19;;;;;;;0.30;0.30;;;;;;;;;;5050137;28;20270;-67
2022/10/18 04:07:44;;;;;;;0.30;0.30;;;;;;;;;;5042816;28;20213;-67
2022/10/18 04:10:09;;;;;;;0.30;0.30;;;;;;;;;;5043446;28;20189;-67
2022/10/18 04:12:35;;;;;;;0.30;0.30;;;;;;;;;;5056009;28;20187;-68
2022/10/18 04:15:01;;;;;;;0.30;0.30;;;;;;;;;;5058285;28;20186;-68
2022/10/18 04:17:26;;;;;;;0.30;0.30;;;;;;;;;;5038770;28;20209;-68
2022/10/18 04:19:51;;;;;;;0.30;0.30;;;;;;;;;;5044363;28;20249;-68
2022/10/18 04:22:17;;;;;;;0.30;0.30;;;;;;;;;;5054714;28;20245;-68
2022/10/18 04:24:42;;;;;;;0.30;0.30;;;;;;;;;;5038459;28;20221;-67
2022/10/18 04:27:08;;;;;;;0.30;0.30;;;;;;;;;;5050463;28;20193;-67
2022/10/18 04:29:33;;;;;;;0.38;0.38;;;;;;;;;;5049459;28;20531;-67
2022/10/18 04:31:59;;;;;;;0.30;0.30;;;;;;;;;;5056669;28;20192;-68
2022/10/18 04:34:25;;;;;;;0.30;0.30;;;;;;;;;;5060284;28;20464;-68
2022/10/18 04:36:50;;;;;;;0.30;0.30;;;;;;;;;;5060559;28;20280;-68
2022/10/18 04:39:16;;;;;;;0.30;0.30;;;;;;;;;;5054371;28;20677;-68
2022/10/18 04:41:42;;;;;;;0.30;0.30;;;;;;;;;;5053477;28;20174;-68
2022/10/18 04:44:07;;;;;;;0.30;0.30;;;;;;;;;;5052374;28;20178;-68
2022/10/18 04:46:33;;;;;;;0.30;0.30;;;;;;;;;;5057101;28;20191;-68
2022/10/18 04:49:00;;;;;;;0.30;0.30;;;;;;;;;;5053698;28;20221;-69
2022/10/18 04:51:26;;;;;;;0.30;0.30;;;;;;;;;;5055517;28;20186;-68
2022/10/18 04:53:51;;;;;;;0.30;0.30;;;;;;;;;;5059226;28;20196;-69
2022/10/18 04:56:16;;;;;;;0.30;0.30;;;;;;;;;;5049914;28;20651;-68
2022/10/18 04:58:42;;;;;;;0.30;0.30;;;;;;;;;;5049557;28;20201;-68
2022/10/18 05:01:07;;;;;;;0.30;0.30;;;;;;;;;;5033752;28;20177;-69
2022/10/18 05:03:33;;;;;;;0.30;0.30;;;;;;;;;;5054450;28;20188;-69
2022/10/18 05:05:58;;;;;;;0.30;0.30;;;;;;;;;;5043201;28;20738;-68
2022/10/18 05:08:24;;;;;;;0.30;0.30;;;;;;;;;;5052672;28;20205;-68
2022/10/18 05:10:49;;;;;;;0.30;0.30;;;;;;;;;;5059147;28;20200;-69
2022/10/18 05:13:17;;;;;;;0.30;0.30;;;;;;;;;;5041316;28;20425;-68
2022/10/18 05:15:45;;;;;;;0.30;0.30;;;;;;;;;;5049789;28;20323;-67
2022/10/18 05:18:10;;;;;;;0.30;0.30;;;;;;;;;;5048261;28;20538;-67
2022/10/18 05:20:35;;;;;;;0.30;0.30;;;;;;;;;;5049069;28;20197;-68
2022/10/18 05:23:01;;;;;;;0.30;0.30;;;;;;;;;;5054907;28;20196;-67
2022/10/18 05:25:27;;;;;;;0.30;0.30;;;;;;;;;;5065244;28;20184;-67
2022/10/18 05:27:52;;;;;;;0.30;0.30;;;;;;;;;;5043663;28;20247;-68
2022/10/18 05:30:17;;;;;;;0.30;0.30;;;;;;;;;;5052194;28;20181;-68
2022/10/18 05:32:43;;;;;;;0.30;0.30;;;;;;;;;;5044245;28;20182;-68
2022/10/18 05:35:08;;;;;;;0.40;0.40;;;;;;;;;;5056746;28;20241;-68
2022/10/18 05:37:34;;;;;;;0.30;0.30;;;;;;;;;;5031286;28;20669;-69
2022/10/18 05:39:59;;;;;;;0.30;0.30;;;;;;;;;;5033172;28;20181;-68
2022/10/18 05:42:24;;;;;;;0.30;0.30;;;;;;;;;;5059694;28;20169;-69
2022/10/18 05:44:50;;;;;;;0.30;0.30;;;;;;;;;;5053393;28;20181;-68
2022/10/18 05:47:15;;;;;;;0.30;0.30;;;;;;;;;;5032413;28;20659;-72
2022/10/18 05:49:40;;;;;;;0.40;0.40;;;;;;;;;;5044995;28;20297;-68
2022/10/18 05:52:06;;;;;;;0.30;0.30;;;;;;;;;;5051319;28;20184;-68
2022/10/18 05:54:31;;;;;;;0.30;0.30;;;;;;;;;;5064136;28;20848;-74
2022/10/18 05:56:57;;;;;;;0.30;0.30;;;;;;;;;;5060456;28;20732;-74
2022/10/18 05:59:22;;;;;;;0.30;0.30;;;;;;;;;;5038879;28;20185;-74
2022/10/18 06:01:47;;;;;;;0.30;0.30;;;;;;;;;;5044681;28;20436;-74
2022/10/18 06:04:13;;;;;;;0.30;0.30;;;;;;;;;;5036855;28;20178;-75
2022/10/18 06:06:38;;;;;;;0.30;0.30;;;;;;;;;;5048672;28;20178;-76
2022/10/18 06:09:05;;;;;;;0.30;0.30;;;;;;;;;;5045076;28;20214;-74
2022/10/18 06:11:31;;;;;;;0.20;0.20;;;;;;;;;;5048374;28;20182;-74
2022/10/18 06:13:57;;;;;;;0.30;0.30;;;;;;;;;;5061611;28;20185;-74
2022/10/18 06:16:23;;;;;;;0.30;0.30;;;;;;;;;;5058437;28;20673;-74
2022/10/18 06:18:51;;;;;;;0.38;0.38;;;;;;;;;;5052177;28;20190;-74
2022/10/18 06:21:17;;;;;;;0.30;0.30;;;;;;;;;;5041738;28;20698;-74
2022/10/18 06:23:42;;;;;;;0.30;0.30;;;;;;;;;;5055055;28;20185;-74
2022/10/18 06:26:10;;;;;;;0.30;0.30;;;;;;;;;;5059493;28;20188;-74
2022/10/18 06:28:36;;;;;;;0.30;0.30;;;;;;;;;;5058452;28;20204;-74
2022/10/18 06:31:04;;;;;;;0.30;0.30;;;;;;;;;;5036838;28;20667;-74
2022/10/18 06:33:30;;;;;;;0.30;0.30;;;;;;;;;;5042157;28;20768;-74
2022/10/18 06:35:59;;;;;;;0.30;0.30;;;;;;;;;;5057088;28;20183;-74
2022/10/18 06:38:26;;;;;;;0.30;0.30;;;;;;;;;;5054197;28;20193;-74
2022/10/18 06:40:52;;;;;;;0.30;0.30;;;;;;;;;;5062037;28;20180;-73
2022/10/18 06:43:17;;;;;;;0.30;0.30;;;;;;;;;;5041633;28;20181;-74
2022/10/18 06:45:43;;;;;;;0.30;0.30;;;;;;;;;;5060448;28;20212;-74
2022/10/18 06:48:08;;;;;;;0.30;0.30;;;;;;;;;;5061852;28;20303;-74
2022/10/18 06:50:33;;;;;;;0.30;0.30;;;;;;;;;;5055057;28;20185;-74
2022/10/18 06:52:59;;;;;;;0.30;0.30;;;;;;;;;;5038538;28;21016;-74
2022/10/18 06:55:24;;;;;;;0.43;0.43;;;;;;;;;;5050884;28;20247;-74
2022/10/18 06:57:49;;;;;;;0.30;0.30;;;;;;;;;;5054917;28;20765;-74
2022/10/18 07:00:15;;;;;;;0.30;0.30;;;;;;;;;;5039937;28;20182;-74
2022/10/18 07:02:40;;;;;;;0.30;0.30;;;;;;;;;;5062858;28;20184;-74
2022/10/18 07:05:10;;;;;;;0.30;0.30;;;;;;;;;;5058838;28;20178;-74
2022/10/18 07:07:36;;;;;;;0.30;0.30;;;;;;;;;;5047766;28;20197;-74
2022/10/18 07:10:01;;;;;;;0.30;0.30;;;;;;;;;;5051424;28;20201;-74
2022/10/18 07:12:26;;;;;;;0.30;0.30;;;;;;;;;;5061960;28;20666;-74
2022/10/18 07:14:52;;;;;;;0.30;0.30;;;;;;;;;;5057917;28;20170;-74
2022/10/18 07:17:17;;;;;;;0.30;0.30;;;;;;;;;;5045237;28;20628;-74
2022/10/18 07:19:42;;;;;;;0.30;0.30;;;;;;;;;;5063668;28;20173;-74
2022/10/18 07:22:08;;;;;;;0.30;0.30;;;;;;;;;;5050290;28;20224;-74
2022/10/18 07:24:33;;;;;;;0.30;0.30;;;;;;;;;;5050114;28;20271;-74
2022/10/18 07:26:58;;;;;;;0.40;0.40;;;;;;;;;;5044222;28;21038;-74
2022/10/18 07:29:24;;;;;;;0.30;0.30;;;;;;;;;;5041770;28;20285;-74
2022/10/18 07:31:49;;;;;;;0.30;0.30;;;;;;;;;;5043931;23;20242;-79
2022/10/18 07:34:14;;;;;;;0.30;0.30;;;;;;;;;;5014597;28;20788;-79
2022/10/18 07:36:40;;;;;;;0.30;0.30;;;;;;;;;;4999453;28;20203;-78
2022/10/18 07:39:05;;;;;;;0.30;0.30;;;;;;;;;;4985497;28;20333;-77
2022/10/18 07:41:32;;;;;;;0.30;0.30;;;;;;;;;;4982495;28;20199;-77
2022/10/18 07:43:58;;;;;;;0.30;0.30;;;;;;;;;;4982337;28;20237;-78
2022/10/18 07:46:23;;;;;;;0.30;0.30;;;;;;;;;;4990449;28;20220;-77
2022/10/18 07:48:49;;;;;;;0.30;0.30;;;;;;;;;;4990175;28;20238;-78
2022/10/18 07:51:15;;;;;;;0.30;0.30;;;;;;;;;;4989892;28;20184;-77
2022/10/18 07:53:40;;;;;;;0.47;0.47;;;;;;;;;;4986033;28;20184;-79
2022/10/18 07:56:15;;;;;;;0.30;0.30;;;;;;;;;;4986139;28;20233;-77
2022/10/18 07:58:44;;;;;;;0.30;0.30;;;;;;;;;;4987015;28;20273;-78
2022/10/18 08:01:09;;;;;;;0.30;0.30;;;;;;;;;;4984720;28;20188;-78
2022/10/18 08:03:35;;;;;;;0.30;0.30;;;;;;;;;;4985101;28;20242;-78
2022/10/18 08:06:01;;;;;;;0.30;0.30;;;;;;;;;;4986544;28;20207;-78
2022/10/18 08:08:28;;;;;;;0.30;0.30;;;;;;;;;;4987231;28;20680;-79
2022/10/18 08:10:54;;;;;;;0.30;0.30;;;;;;;;;;4983350;28;20176;-79
2022/10/18 08:13:19;;;;;;;0.30;0.30;;;;;;;;;;4987766;28;20194;-79
2022/10/18 08:15:46;;;;;;;0.30;0.30;;;;;;;;;;4986787;28;20183;-79
2022/10/18 08:18:11;;;;;;;0.30;0.30;;;;;;;;;;4982966;28;20286;-78
2022/10/18 08:20:40;;;;;;;0.30;0.30;;;;;;;;;;4983618;28;20670;-79
2022/10/18 08:23:07;;;;;;;0.30;0.30;;;;;;;;;;4989215;28;20951;-79
2022/10/18 08:25:32;;;;;;;0.30;0.30;;;;;;;;;;4989946;28;20192;-78
2022/10/18 08:27:57;;;;;;;0.30;0.30;;;;;;;;;;5000990;28;20204;-78
2022/10/18 08:30:23;;;;;;;0.30;0.30;;;;;;;;;;4987368;28;20184;-79
2022/10/18 08:32:48;;;;;;;0.30;0.30;;;;;;;;;;4990509;28;20658;-79
2022/10/18 08:35:14;;;;;;;0.30;0.30;;;;;;;;;;4990425;28;20681;-79
2022/10/18 08:37:39;;;;;;;0.30;0.30;;;;;;;;;;4991474;28;20203;-80
2022/10/18 08:40:05;;;;;;;0.30;0.30;;;;;;;;;;4989946;28;20182;-79
2022/10/18 08:42:56;;;;;;;0.30;0.30;;;;;;;;;;4990598;28;20754;-79
2022/10/18 08:45:22;;;;;;;0.55;0.55;;;;;;;;;;4982260;28;20183;-79
2022/10/18 08:47:50;;;;;;;0.30;0.30;;;;;;;;;;4984245;28;20694;-78
2022/10/18 08:50:22;;;;;;;0.30;0.30;;;;;;;;;;4987325;28;20187;-78
2022/10/18 08:53:14;;;;;;;0.30;0.30;;;;;;;;;;4988778;28;20180;-78
2022/10/18 08:56:02;;;;;;;0.30;0.30;;;;;;;;;;4980883;28;20235;-78
2022/10/18 08:58:32;;;;;;;0.30;0.30;;;;;;;;;;4983862;28;20204;-78
2022/10/18 09:01:22;;;;;;;0.30;0.30;;;;;;;;;;4986519;28;20184;-77
2022/10/18 09:04:08;;;;;;;0.30;0.30;;;;;;;;;;4985155;28;20171;-76
2022/10/18 09:06:54;;;;;;;0.30;0.30;;;;;;;;;;4979715;28;20255;-77
2022/10/18 09:09:39;;;;;;;0.30;0.30;;;;;;;;;;4983026;28;21409;-76
2022/10/18 09:12:35;;;;;;;0.30;0.30;;;;;;;;;;4988832;28;20265;-76
2022/10/18 09:15:35;;;;;;;0.30;0.30;;;;;;;;;;4984299;28;20774;-76
2022/10/18 09:18:27;;;;;;;0.30;0.30;;;;;;;;;;4983613;28;20199;-75
2022/10/18 09:20:58;;;;;;;0.35;0.35;;;;;;;;;;4984629;28;20172;-79
2022/10/18 09:23:31;;;;;;;0.30;0.30;;;;;;;;;;4982738;28;20180;-75
2022/10/18 09:26:04;;;;;;;0.30;0.30;;;;;;;;;;4989379;28;20180;-76
2022/10/18 09:28:45;;;;;;;0.30;0.30;;;;;;;;;;4990717;28;20223;-76
2022/10/18 09:31:38;;;;;;;0.30;0.30;;;;;;;;;;4986151;28;20199;-77
2022/10/18 09:34:13;;;;;;;0.30;0.30;;;;;;;;;;4988131;28;20722;-76
2022/10/18 09:36:39;;;;;;;0.30;0.30;;;;;;;;;;4986478;28;20207;-76
2022/10/18 09:39:15;;;;;;;0.30;0.30;;;;;;;;;;4980384;28;20230;-75
2022/10/18 09:41:47;;;;;;;0.30;0.30;;;;;;;;;;4988667;28;20175;-76
2022/10/18 09:44:15;;;;;;;0.30;0.30;;;;;;;;;;4997696;28;20668;-77
2022/10/18 09:46:46;;;;;;;0.30;0.30;;;;;;;;;;4987110;28;20196;-75
2022/10/18 09:49:25;;;;;;;0.30;0.30;;;;;;;;;;4997005;28;20294;-75
2022/10/18 09:51:53;;;;;;;0.30;0.30;;;;;;;;;;4989305;28;20178;-76
2022/10/18 09:54:39;;;;;;;0.30;0.30;;;;;;;;;;4988316;28;20462;-77
2022/10/18 09:57:16;;;;;;;0.30;0.30;;;;;;;;;;4987379;28;20310;-76
2022/10/18 09:59:48;;;;;;;0.30;0.30;;;;;;;;;;4985983;28;20644;-77
2022/10/18 10:02:19;;;;;;;0.30;0.30;;;;;;;;;;4986842;28;20192;-75
2022/10/18 10:04:45;;;;;;;0.30;0.30;;;;;;;;;;4984959;28;20199;-76
2022/10/18 10:07:18;;;;;;;0.30;0.30;;;;;;;;;;4985032;28;20200;-76
2022/10/18 10:09:47;;;;;;;0.30;0.30;;;;;;;;;;4982569;28;20291;-77
2022/10/18 10:12:30;;;;;;;0.30;0.30;;;;;;;;;;4986020;28;20549;-77
2022/10/18 10:15:08;;;;;;;0.30;0.30;;;;;;;;;;4988295;28;20172;-76
2022/10/18 10:17:33;;;;;;;0.30;0.30;;;;;;;;;;4988870;28;20582;-76
2022/10/18 10:20:18;;;;;;;0.30;0.30;;;;;;;;;;4985358;28;20185;-77
2022/10/18 10:22:45;;;;;;;0.30;0.30;;;;;;;;;;4985295;28;20187;-76
2022/10/18 10:25:23;;;;;;;0.30;0.30;;;;;;;;;;4989992;28;20561;-76
2022/10/18 10:27:48;;;;;;;0.30;0.30;;;;;;;;;;4983133;28;20207;-75
2022/10/18 10:30:27;;;;;;;0.40;0.40;;;;;;;;;;4985868;28;20191;-76
2022/10/18 10:32:55;;;;;;;0.30;0.30;;;;;;;;;;4987235;28;20195;-77
2022/10/18 10:35:32;;;;;;;0.30;0.30;;;;;;;;;;4988196;28;20176;-76
2022/10/18 10:37:57;;;;;;;0.30;0.30;;;;;;;;;;4986733;28;20708;-76
2022/10/18 10:40:29;;;;;;;0.30;0.30;;;;;;;;;;4990893;28;20227;-77
2022/10/18 10:43:06;;;;;;;0.60;0.60;;;;;;;;;;4989911;28;20275;-76
2022/10/18 10:46:02;;;;;;;0.30;0.30;;;;;;;;;;5002456;28;20302;-76
2022/10/18 10:48:38;;;;;;;0.30;0.30;;;;;;;;;;4978034;28;20307;-76
2022/10/18 10:51:06;;;;;;;0.30;0.30;;;;;;;;;;4981703;28;20190;-76
2022/10/18 10:53:37;;;;;;;0.30;0.30;;;;;;;;;;4984223;28;20192;-77
2022/10/18 10:56:04;;;;;;;0.30;0.30;;;;;;;;;;4987861;28;20842;-75
2022/10/18 10:58:36;;;;;;;0.30;0.30;;;;;;;;;;4986170;28;20279;-76
2022/10/18 11:01:20;;;;;;;0.30;0.30;;;;;;;;;;4985661;28;20182;-76
2022/10/18 11:03:47;;;;;;;0.30;0.30;;;;;;;;;;4989444;28;20566;-76
2022/10/18 11:06:36;;;;;;;0.30;0.30;;;;;;;;;;4986332;28;20184;-76
2022/10/18 11:09:08;;;;;;;0.40;0.40;;;;;;;;;;4985016;28;20639;-76
2022/10/18 11:11:45;;;;;;;0.30;0.30;;;;;;;;;;4987823;28;20184;-76
2022/10/18 11:14:28;;;;;;;0.30;0.30;;;;;;;;;;4981074;28;20226;-76
2022/10/18 11:17:12;;;;;;;2.30;2.22;;;;;;;;;;4983311;28;20251;-77
2022/10/18 11:19:55;;;;;;;0.30;0.30;;;;;;;;;;5002045;28;20226;-76
2022/10/18 11:22:24;;;;;;;0.20;0.20;;;;;;;;;;4985919;28;20184;-76
2022/10/18 11:24:50;;;;;;;0.30;0.30;;;;;;;;;;4982655;28;20711;-75
2022/10/18 11:27:28;;;;;;;0.30;0.30;;;;;;;;;;4985065;28;20288;-76
2022/10/18 11:30:20;;;;;;;0.47;0.47;;;;;;;;;;4983249;28;20483;-76
2022/10/18 11:33:38;;;;;;;0.30;0.30;;;;;;;;;;4987238;28;20211;-76
2022/10/18 11:36:15;;;;;;;0.30;0.30;;;;;;;;;;4963344;28;20262;-76
2022/10/18 11:38:51;;;;;;;0.40;0.40;;;;;;;;;;4988853;28;20238;-76
2022/10/18 11:41:44;;;;;;;0.30;0.30;;;;;;;;;;4987926;28;20242;-76
2022/10/18 11:44:20;;;;;;;0.30;0.30;;;;;;;;;;4982468;28;20180;-76
2022/10/18 11:47:12;;;;;;;0.30;0.30;;;;;;;;;;4981265;28;20204;-76
2022/10/18 11:50:05;;;;;;;0.30;0.30;;;;;;;;;;4986465;28;20266;-76
2022/10/18 11:52:53;;;;;;;0.30;0.30;;;;;;;;;;4985179;28;20206;-76
2022/10/18 11:55:46;;;;;;;0.30;0.30;;;;;;;;;;4977958;28;20594;-76
2022/10/18 11:58:30;;;;;;;0.30;0.30;;;;;;;;;;4985522;28;20427;-76
2022/10/18 12:01:15;;;;;;;0.30;0.30;;;;;;;;;;4985123;28;20176;-76
2022/10/18 12:03:48;;;;;;;0.30;0.30;;;;;;;;;;4984891;28;20183;-76
2022/10/18 12:06:21;;;;;;;0.30;0.30;;;;;;;;;;4984767;28;20194;-75
2022/10/18 12:08:51;;;;;;;0.30;0.30;;;;;;;;;;4987021;28;20307;-76
2022/10/18 12:11:37;;;;;;;0.30;0.30;;;;;;;;;;4985662;28;20216;-76
2022/10/18 12:14:11;;;;;;;0.30;0.30;;;;;;;;;;4982341;28;20180;-77
2022/10/18 12:16:40;;;;;;;0.30;0.30;;;;;;;;;;4984083;28;20186;-77
2022/10/18 12:19:17;;;;;;;0.30;0.30;;;;;;;;;;4985791;28;20184;-77
2022/10/18 12:21:43;;;;;;;0.30;0.30;;;;;;;;;;4985453;28;20964;-78
2022/10/18 12:24:20;;;;;;;0.30;0.30;;;;;;;;;;4985433;28;20267;-77
2022/10/18 12:26:48;;;;;;;0.30;0.30;;;;;;;;;;4981169;28;20203;-77
2022/10/18 12:29:17;;;;;;;0.30;0.30;;;;;;;;;;4984258;28;20293;-77
2022/10/18 12:31:47;;;;;;;0.30;0.30;;;;;;;;;;4982304;28;20207;-78
2022/10/18 12:34:25;;;;;;;0.30;0.30;;;;;;;;;;4985691;28;20672;-77
2022/10/18 12:37:16;;;;;;;0.30;0.30;;;;;;;;;;4987174;28;20204;-77
2022/10/18 12:39:46;;;;;;;0.30;0.30;;;;;;;;;;4987806;28;20199;-77
2022/10/18 12:42:32;;;;;;;0.30;0.30;;;;;;;;;;4982597;28;20637;-78
2022/10/18 12:45:12;;;;;;;0.52;0.52;;;;;;;;;;4985557;28;20233;-77
2022/10/18 12:47:39;;;;;;;0.40;0.40;;;;;;;;;;4984682;28;20259;-78
2022/10/18 12:50:21;;;;;;;0.30;0.30;;;;;;;;;;4984079;28;20752;-78
2022/10/18 12:53:20;;;;;;;0.30;0.30;;;;;;;;;;4984573;28;20251;-77
2022/10/18 12:55:48;;;;;;;0.30;0.30;;;;;;;;;;4972525;28;20880;-78
2022/10/18 13:00:32;;;;;;;0.30;0.30;;;;;;;;;;4949750;27;20558;-76
2022/10/18 13:03:15;;;;;;;0.30;0.30;;;;;;;;;;4926161;28;74791;-76
2022/10/18 13:05:46;;;;;;;0.30;0.30;;;;;;;;;;5018076;28;20216;-76
2022/10/18 13:08:26;;;;;;;0.28;0.28;;;;;;;;;;4984640;28;20225;-85
2022/10/18 13:11:00;;;;;;;0.77;0.77;;;;;;;;;;4969449;28;67067;-75
2022/10/18 13:13:26;;;;;;;0.50;0.50;;;;;;;;;;5041661;28;20182;-75
2022/10/18 13:15:56;;;;;;;0.30;0.30;;;;;;;;;;5040327;28;20659;-74
2022/10/18 13:18:28;;;;;;;0.35;0.35;;;;;;;;;;5056471;28;20232;-75
2022/10/18 13:21:20;;;;;;;0.30;0.30;;;;;;;;;;5039975;28;20216;-77
2022/10/18 13:23:54;;;;;;;0.30;0.30;;;;;;;;;;5006093;28;20214;-76
2022/10/18 13:26:30;;;;;;;0.60;0.60;;;;;;;;;;5018937;28;20178;-74
2022/10/18 13:29:02;;;;;;;0.30;0.30;;;;;;;;;;5033898;28;20569;-76
2022/10/18 13:31:56;;;;;;;0.32;0.32;;;;;;;;;;5023756;28;20179;-77
2022/10/18 13:34:26;;;;;;;0.30;0.30;;;;;;;;;;5031256;28;20449;-76
2022/10/18 13:37:03;;;;;;;0.30;0.30;;;;;;;;;;5023130;28;20218;-76
2022/10/18 13:39:29;;;;;;;0.30;0.30;;;;;;;;;;5019313;28;21005;-75
2022/10/18 13:41:55;;;;;;;0.30;0.30;;;;;;;;;;5021941;28;20186;-77
2022/10/18 13:44:32;;;;;;;0.30;0.30;;;;;;;;;;5018883;28;20679;-76
2022/10/18 13:46:57;;;;;;;0.30;0.30;;;;;;;;;;5033896;28;20247;-77
2022/10/18 13:49:37;;;;;;;0.30;0.30;;;;;;;;;;5021591;28;20261;-76
2022/10/18 13:52:21;;;;;;;0.30;0.30;;;;;;;;;;5022121;28;20896;-75
2022/10/18 13:55:05;;;;;;;0.30;0.30;;;;;;;;;;5022143;28;20205;-76
2022/10/18 13:57:30;;;;;;;0.30;0.30;;;;;;;;;;5040650;28;20199;-76
2022/10/18 14:00:04;;;;;;;0.30;0.30;;;;;;;;;;5022047;28;20683;-76
2022/10/18 14:02:56;;;;;;;0.30;0.30;;;;;;;;;;5037345;28;20562;-75
2022/10/18 14:05:40;;;;;;;0.30;0.30;;;;;;;;;;5021029;28;20206;-76
2022/10/18 14:08:11;;;;;;;0.22;0.22;;;;;;;;;;5022333;28;20195;-76
2022/10/18 14:10:45;;;;;;;0.30;0.30;;;;;;;;;;5013215;28;20167;-76
2022/10/18 14:13:17;;;;;;;0.40;0.40;;;;;;;;;;5022448;28;20173;-77
2022/10/18 14:15:43;;;;;;;0.30;0.30;;;;;;;;;;5022942;28;20203;-76
2022/10/18 14:18:13;;;;;;;0.30;0.30;;;;;;;;;;5008777;28;20261;-76
2022/10/18 14:20:40;;;;;;;0.30;0.30;;;;;;;;;;5020877;28;20230;-76
2022/10/18 14:23:12;;;;;;;0.30;0.30;;;;;;;;;;5023499;28;20183;-75
2022/10/18 14:25:37;;;;;;;0.35;0.35;;;;;;;;;;5020080;28;20544;-76
2022/10/18 14:28:09;;;;;;;0.30;0.30;;;;;;;;;;5005074;28;20210;-76
2022/10/18 14:30:34;;;;;;;0.30;0.30;;;;;;;;;;4984557;28;20221;-76
2022/10/18 14:32:59;;;;;;;0.30;0.30;;;;;;;;;;5009205;28;20184;-76
2022/10/18 14:35:34;;;;;;;0.30;0.30;;;;;;;;;;5009528;28;20187;-76
2022/10/18 14:38:00;;;;;;;0.40;0.40;;;;;;;;;;5008090;28;20201;-76
2022/10/18 14:40:37;;;;;;;0.30;0.30;;;;;;;;;;5006941;28;20179;-76
2022/10/18 14:43:13;;;;;;;0.38;0.38;;;;;;;;;;5006316;28;20265;-76
2022/10/18 14:45:39;;;;;;;0.30;0.30;;;;;;;;;;5002704;28;20192;-77
2022/10/18 14:48:15;;;;;;;0.30;0.30;;;;;;;;;;5008226;28;20278;-75
2022/10/18 14:50:42;;;;;;;0.30;0.30;;;;;;;;;;5007276;28;20187;-76
2022/10/18 14:53:12;;;;;;;0.30;0.30;;;;;;;;;;5003935;28;20208;-76
2022/10/18 14:55:37;;;;;;;0.30;0.30;;;;;;;;;;5007267;28;20183;-76
2022/10/18 14:58:07;;;;;;;0.40;0.40;;;;;;;;;;5008188;28;20572;-76
2022/10/18 15:00:35;;;;;;;0.30;0.30;;;;;;;;;;5007977;28;20175;-76
2022/10/18 15:03:01;;;;;;;0.30;0.30;;;;;;;;;;5008164;28;20244;-76
2022/10/18 15:05:27;;;;;;;0.30;0.30;;;;;;;;;;5007932;28;20179;-75
2022/10/18 15:07:52;;;;;;;0.30;0.30;;;;;;;;;;5006909;28;20196;-75
2022/10/18 15:10:23;;;;;;;0.57;0.57;;;;;;;;;;5022276;28;20199;-74